Time;durP1;ratioP1;P1;durP2;ratioP2;P2;SDS_P1;SDS_P2;PMS_P1;PMS_P2;Temp;Humidity;BMP_temperature;BMP_pressure;BME280_temperature;BME280_humidity;BME280_pressure;Samples;Min_cycle;Max_cycle;Signal;HPM_P1;HPM_P2
2022/04/21 00:00:19;;;;;;;33.85;23.98;;;128.70;2252.80;;;;;;5075501;28;20032;-74
2022/04/21 00:02:45;;;;;;;39.42;25.13;;;153.60;2252.80;;;;;;5075042;28;20028;-74
2022/04/21 00:05:12;;;;;;;44.65;27.13;;;153.80;2252.80;;;;;;5074955;28;20032;-74
2022/04/21 00:07:38;;;;;;;42.63;26.35;;;153.90;2252.80;;;;;;5074349;28;20033;-78
2022/04/21 00:10:06;;;;;;;49.47;30.55;;;153.90;2252.80;;;;;;5074868;28;20025;-76
2022/04/21 00:12:33;;;;;;;46.78;27.42;;;153.90;2252.80;;;;;;5074698;28;20086;-78
2022/04/21 00:14:59;;;;;;;41.97;24.73;;;154.10;2252.80;;;;;;5075320;28;20390;-76
2022/04/21 00:17:25;;;;;;;42.30;25.48;;;154.10;2252.80;;;;;;5074635;28;20024;-75
2022/04/21 00:19:51;;;;;;;47.42;27.30;;;154.10;2252.80;;;;;;5074638;28;20028;-74
2022/04/21 00:25:02;;;;;;;46.58;27.58;;;154.00;2252.80;;;;;;5075861;28;20027;-75
2022/04/21 00:27:28;;;;;;;42.75;25.80;;;154.10;2252.80;;;;;;5075801;28;20028;-77
2022/04/21 00:29:55;;;;;;;47.60;26.35;;;153.90;2252.80;;;;;;5075493;28;20028;-75
2022/04/21 00:32:21;;;;;;;51.25;31.27;;;153.80;2252.80;;;;;;5074282;28;20037;-74
2022/04/21 00:34:46;;;;;;;40.58;24.55;;;153.90;2252.80;;;;;;5074396;28;20025;-77
2022/04/21 00:37:12;;;;;;;36.90;22.20;;;154.00;2252.80;;;;;;5074020;28;20063;-75
2022/04/21 00:39:38;;;;;;;29.55;19.75;;;154.10;2252.80;;;;;;5074231;28;20021;-75
2022/04/21 00:42:04;;;;;;;29.05;18.98;;;154.20;2252.80;;;;;;5075416;28;20044;-76
2022/04/21 00:44:30;;;;;;;26.52;18.65;;;154.30;2252.80;;;;;;5075727;28;20082;-75
2022/04/21 00:47:00;;;;;;;23.75;17.17;;;154.10;2252.80;;;;;;5074034;28;20029;-76
2022/04/21 00:49:27;;;;;;;22.40;17.75;;;154.00;2252.80;;;;;;5073820;28;20488;-77
2022/04/21 00:51:54;;;;;;;23.20;16.38;;;154.00;2252.80;;;;;;5073943;28;20506;-73
2022/04/21 00:54:20;;;;;;;27.15;18.35;;;153.90;2252.80;;;;;;5074013;28;20487;-74
2022/04/21 00:56:47;;;;;;;28.25;19.05;;;154.00;2252.80;;;;;;5073583;28;20028;-75
2022/04/21 00:59:13;;;;;;;28.00;19.67;;;154.10;2252.80;;;;;;5073955;28;20025;-74
2022/04/21 01:04:24;;;;;;;29.88;17.80;;;128.80;2176.00;;;;;;5074781;28;20118;-73
2022/04/21 01:06:54;;;;;;;23.55;16.45;;;128.70;2252.80;;;;;;5073773;28;20024;-72
2022/04/21 01:09:21;;;;;;;26.08;18.00;;;128.40;2252.80;;;;;;5073760;28;20052;-73
2022/04/21 01:11:47;;;;;;;23.73;16.08;;;128.40;2252.80;;;;;;5073299;28;20032;-75
2022/04/21 01:14:17;;;;;;;25.55;17.33;;;128.50;2252.80;;;;;;5073538;28;20115;-73
2022/04/21 01:16:45;;;;;;;29.15;18.23;;;128.80;2252.80;;;;;;5073497;28;20043;-72
2022/04/21 01:19:11;;;;;;;23.40;16.83;;;128.90;2252.80;;;;;;5073074;28;20024;-72
2022/04/21 01:21:36;;;;;;;24.83;16.30;;;128.40;2252.80;;;;;;5073378;28;20120;-72
2022/04/21 01:24:04;;;;;;;24.00;16.08;;;128.10;2252.80;;;;;;5074476;28;20025;-74
2022/04/21 01:26:37;;;;;;;20.63;15.70;;;128.50;2252.80;;;;;;5074503;28;20020;-73
2022/04/21 01:29:05;;;;;;;29.83;16.55;;;128.90;2252.80;;;;;;5073330;28;20025;-77
2022/04/21 01:31:31;;;;;;;21.83;16.38;;;128.50;2252.80;;;;;;5072992;28;20036;-75
2022/04/21 01:33:58;;;;;;;21.23;14.57;;;128.50;2252.80;;;;;;5073116;28;20386;-73
2022/04/21 01:36:24;;;;;;;23.33;14.93;;;128.80;2252.80;;;;;;5073032;28;20489;-75
2022/04/21 01:41:35;;;;;;;32.67;18.23;;;128.70;2252.80;;;;;;5074430;28;20063;-75
2022/04/21 01:44:02;;;;;;;30.17;19.70;;;128.70;2252.80;;;;;;5072840;28;20036;-73
2022/04/21 01:46:27;;;;;;;34.80;22.00;;;128.60;2252.80;;;;;;5072635;28;20032;-75
2022/04/21 01:48:53;;;;;;;46.67;19.83;;;128.40;2252.80;;;;;;5072827;28;20085;-77
2022/04/21 01:51:19;;;;;;;47.88;21.65;;;128.10;2252.80;;;;;;5072758;28;20039;-74
2022/04/21 01:53:45;;;;;;;33.25;18.27;;;128.00;2252.80;;;;;;5073878;28;20039;-74
2022/04/21 01:56:11;;;;;;;33.28;19.83;;;128.40;2252.80;;;;;;5072685;28;20044;-75
2022/04/21 01:58:36;;;;;;;40.47;20.08;;;128.50;2252.80;;;;;;5073611;28;20135;-74
2022/04/21 02:01:02;;;;;;;39.63;19.73;;;128.70;2252.80;;;;;;5072464;28;20028;-75
2022/04/21 02:03:30;;;;;;;34.80;20.05;;;128.40;2252.80;;;;;;5072663;28;20024;-75
2022/04/21 02:05:56;;;;;;;53.08;22.13;;;128.50;2252.80;;;;;;5072616;28;20030;-74
2022/04/21 02:08:22;;;;;;;46.70;21.63;;;128.70;2252.80;;;;;;5073647;28;20095;-73
2022/04/21 02:10:48;;;;;;;56.28;21.38;;;128.80;2252.80;;;;;;5073807;28;20020;-73
2022/04/21 02:13:14;;;;;;;41.88;25.10;;;128.50;2252.80;;;;;;5073243;28;20020;-73
2022/04/21 02:15:40;;;;;;;51.95;24.10;;;128.80;2252.80;;;;;;5072535;28;20074;-74
2022/04/21 02:18:06;;;;;;;42.35;22.35;;;128.80;2252.80;;;;;;5073753;28;20071;-74
2022/04/21 02:20:32;;;;;;;32.72;18.83;;;128.90;2252.80;;;;;;5073554;28;20028;-73
2022/04/21 02:22:57;;;;;;;32.50;19.48;;;153.70;2252.80;;;;;;5072405;28;20115;-73
2022/04/21 02:25:23;;;;;;;32.50;19.20;;;128.90;2252.80;;;;;;5072449;28;20028;-77
2022/04/21 02:27:50;;;;;;;29.25;17.52;;;153.60;2252.80;;;;;;5072072;28;20035;-76
2022/04/21 02:30:18;;;;;;;28.50;17.27;;;128.90;2252.80;;;;;;5072390;28;20025;-75
2022/04/21 02:32:45;;;;;;;25.02;15.88;;;128.90;2252.80;;;;;;5072290;28;20028;-76
2022/04/21 02:35:12;;;;;;;27.70;16.13;;;128.80;2252.80;;;;;;5071966;28;20021;-73
2022/04/21 02:37:43;;;;;;;29.52;17.02;;;128.70;2150.40;;;;;;5071961;28;20033;-73
2022/04/21 02:40:10;;;;;;;28.35;17.92;;;128.90;2252.80;;;;;;5073624;28;20024;-75
2022/04/21 02:42:40;;;;;;;30.05;17.42;;;128.70;2099.20;;;;;;5071830;28;20063;-74
2022/04/21 02:45:08;;;;;;;28.30;18.30;;;128.70;2252.80;;;;;;5072213;28;20477;-75
2022/04/21 02:47:36;;;;;;;31.80;17.40;;;128.80;1894.40;;;;;;5072084;28;20520;-75
2022/04/21 02:50:02;;;;;;;34.65;18.77;;;128.80;2252.80;;;;;;5073158;28;20029;-74
2022/04/21 02:52:28;;;;;;;31.48;17.67;;;128.90;2252.80;;;;;;5073470;28;20041;-77
2022/04/21 02:57:40;;;;;;;37.83;21.90;;;153.60;2252.80;;;;;;5073432;28;20035;-76
2022/04/21 03:00:07;;;;;;;34.70;20.75;;;153.70;2252.80;;;;;;5072077;28;20021;-74
2022/04/21 03:02:33;;;;;;;36.45;21.15;;;128.80;2252.80;;;;;;5073276;28;20080;-76
2022/04/21 03:04:59;;;;;;;53.42;24.85;;;128.90;2252.80;;;;;;5071959;28;20028;-75
2022/04/21 03:07:24;;;;;;;45.22;23.35;;;128.90;2124.80;;;;;;5072108;28;20027;-75
2022/04/21 03:09:55;;;;;;;35.42;17.65;;;128.90;2252.80;;;;;;5075319;28;20028;-76
2022/04/21 03:12:26;;;;;;;35.65;16.55;;;128.70;2252.80;;;;;;5075833;28;20032;-76
2022/04/21 03:14:53;;;;;;;37.78;15.95;;;128.70;2252.80;;;;;;5075861;28;20056;-76
2022/04/21 03:17:19;;;;;;;37.58;14.68;;;128.60;2252.80;;;;;;5075503;28;20032;-75
2022/04/21 03:19:45;;;;;;;30.17;15.68;;;128.60;2252.80;;;;;;5075767;28;20074;-75
2022/04/21 03:25:00;;;;;;;38.35;14.50;;;128.20;2252.80;;;;;;5076717;28;20074;-77
2022/04/21 03:27:29;;;;;;;34.67;14.98;;;128.10;2252.80;;;;;;5078482;28;20021;-74
2022/04/21 03:29:56;;;;;;;43.47;16.45;;;103.20;2227.20;;;;;;5084994;28;20474;-76
2022/04/21 03:32:22;;;;;;;46.83;15.93;;;103.00;2227.20;;;;;;5076702;28;20119;-73
2022/04/21 03:34:48;;;;;;;39.08;16.58;;;103.00;2227.20;;;;;;5076842;28;20117;-76
2022/04/21 03:37:15;;;;;;;46.42;19.17;;;103.00;2227.20;;;;;;5075231;28;20035;-76
2022/04/21 03:39:42;;;;;;;48.35;17.83;;;103.10;2227.20;;;;;;5076741;28;20102;-75
2022/04/21 03:42:23;;;;;;;36.15;17.67;;;103.10;2227.20;;;;;;5075104;28;20080;-74
2022/04/21 03:44:49;;;;;;;42.28;18.13;;;103.20;2227.20;;;;;;5074776;28;20031;-76
2022/04/21 03:47:15;;;;;;;46.33;17.40;;;103.30;2227.20;;;;;;5075358;28;20024;-74
2022/04/21 03:49:41;;;;;;;27.45;16.40;;;103.20;2227.20;;;;;;5075162;28;20453;-76
2022/04/21 03:52:10;;;;;;;33.25;15.45;;;103.30;2227.20;;;;;;5074798;28;20082;-76
2022/04/21 03:54:36;;;;;;;45.08;16.92;;;128.00;2252.80;;;;;;5075187;28;20115;-75
2022/04/21 03:57:02;;;;;;;25.27;15.45;;;128.10;2252.80;;;;;;5075145;28;20048;-74
2022/04/21 03:59:27;;;;;;;31.98;17.75;;;128.20;2252.80;;;;;;5076157;28;20098;-73
2022/04/21 04:01:53;;;;;;;37.25;19.90;;;128.40;2252.80;;;;;;5076098;28;20366;-73
2022/04/21 04:04:19;;;;;;;47.00;19.48;;;128.60;2252.80;;;;;;5074917;28;20425;-73
2022/04/21 04:12:14;;;;;;;48.33;16.20;;;128.00;2252.80;;;;;;5075655;28;20082;-74
2022/04/21 04:14:40;;;;;;;33.28;14.63;;;103.30;2227.20;;;;;;5074742;28;20025;-74
2022/04/21 04:17:08;;;;;;;33.38;17.95;;;128.10;2252.80;;;;;;5076250;28;20082;-75
2022/04/21 04:19:34;;;;;;;28.65;15.73;;;128.20;2252.80;;;;;;5073955;28;20024;-75
2022/04/21 04:22:01;;;;;;;27.73;15.88;;;128.50;2252.80;;;;;;5074691;28;20032;-74
2022/04/21 04:24:27;;;;;;;28.17;15.77;;;128.60;2252.80;;;;;;5074814;28;20024;-75
2022/04/21 04:26:53;;;;;;;37.83;19.55;;;128.90;2252.80;;;;;;5075589;28;20031;-75
2022/04/21 04:29:22;;;;;;;57.45;24.02;;;153.60;1894.40;;;;;;5074572;28;20021;-74
2022/04/21 04:31:57;;;;;;;46.08;26.25;;;128.80;2252.80;;;;;;5074345;28;20040;-74
2022/04/21 04:34:23;;;;;;;43.63;22.02;;;128.90;2252.80;;;;;;5075329;28;20032;-74
2022/04/21 04:36:49;;;;;;;36.67;19.98;;;128.80;2252.80;;;;;;5074431;28;20031;-76
2022/04/21 04:39:15;;;;;;;36.08;23.65;;;128.60;2252.80;;;;;;5075896;28;20035;-75
2022/04/21 04:44:25;;;;;;;58.35;36.08;;;128.70;2252.80;;;;;;5075271;28;20032;-75
2022/04/21 04:46:51;;;;;;;38.10;27.08;;;128.40;2252.80;;;;;;5074175;28;20421;-74
2022/04/21 04:49:17;;;;;;;42.75;31.60;;;128.40;2252.80;;;;;;5073820;28;20056;-74
2022/04/21 04:51:44;;;;;;;48.53;31.40;;;128.30;2252.80;;;;;;5073761;28;20131;-75
2022/04/21 04:54:11;;;;;;;44.55;28.80;;;128.40;2252.80;;;;;;5073749;28;20025;-74
2022/04/21 04:56:39;;;;;;;45.05;28.25;;;128.60;2252.80;;;;;;5073898;28;20466;-73
2022/04/21 04:59:05;;;;;;;51.20;30.48;;;128.80;2252.80;;;;;;5073906;28;20028;-73
2022/04/21 05:01:51;;;;;;;51.85;32.83;;;128.70;2252.80;;;;;;5074617;28;20028;-75
2022/04/21 05:04:18;;;;;;;51.60;29.85;;;128.70;2252.80;;;;;;5074898;28;20036;-75
2022/04/21 05:06:48;;;;;;;41.67;23.73;;;128.80;2252.80;;;;;;5073804;28;20031;-75
2022/04/21 05:09:19;;;;;;;40.55;23.25;;;128.70;2252.80;;;;;;5073472;28;20431;-75
2022/04/21 05:11:47;;;;;;;49.17;35.08;;;128.70;2252.80;;;;;;5073644;28;20033;-74
2022/04/21 05:14:13;;;;;;;46.40;31.55;;;128.70;2252.80;;;;;;5074879;28;20078;-75
2022/04/21 05:16:39;;;;;;;209.60;145.82;;;128.70;1945.60;;;;;;5073204;28;20531;-73
2022/04/21 05:19:10;;;;;;;55.05;38.63;;;128.70;2252.80;;;;;;5073492;28;20020;-73
2022/04/21 05:21:37;;;;;;;37.83;25.05;;;128.80;2252.80;;;;;;5073381;28;20086;-78
2022/04/21 05:24:04;;;;;;;92.38;65.30;;;128.80;2252.80;;;;;;5074332;28;20028;-74
2022/04/21 05:26:31;;;;;;;56.08;36.42;;;128.90;2252.80;;;;;;5073264;28;20021;-75
2022/04/21 05:28:59;;;;;;;58.83;44.42;;;128.90;2252.80;;;;;;5073326;28;20029;-78
2022/04/21 05:31:26;;;;;;;48.03;29.45;;;128.50;2252.80;;;;;;5072350;28;20082;-76
2022/04/21 05:33:54;;;;;;;47.15;28.25;;;128.60;2252.80;;;;;;5072964;28;20405;-76
2022/04/21 05:36:21;;;;;;;43.15;25.23;;;128.50;2252.80;;;;;;5074127;28;20024;-77
2022/04/21 05:38:49;;;;;;;56.85;34.38;;;128.60;1868.80;;;;;;5073192;28;20474;-75
2022/04/21 05:41:17;;;;;;;50.90;29.25;;;128.60;2252.80;;;;;;5072691;28;20065;-74
2022/04/21 05:43:45;;;;;;;114.07;87.22;;;128.70;2252.80;;;;;;5072769;28;20093;-76
2022/04/21 05:46:13;;;;;;;71.38;46.80;;;128.30;2252.80;;;;;;5072940;28;20024;-75
2022/04/21 05:48:40;;;;;;;52.45;33.38;;;128.40;2252.80;;;;;;5074240;28;20021;-75
2022/04/21 05:51:09;;;;;;;44.25;27.88;;;128.20;2252.80;;;;;;5073818;28;20106;-76
2022/04/21 05:53:37;;;;;;;47.72;28.05;;;128.10;2252.80;;;;;;5072798;28;20020;-73
2022/04/21 05:56:08;;;;;;;52.60;33.78;;;128.00;2252.80;;;;;;5072731;28;20021;-74
2022/04/21 05:58:36;;;;;;;57.22;35.17;;;103.30;2227.20;;;;;;5072329;28;20107;-73
2022/04/21 06:01:09;;;;;;;50.40;32.00;;;103.30;2227.20;;;;;;5073013;28;20484;-75
2022/04/21 06:03:37;;;;;;;51.60;33.30;;;128.40;2252.80;;;;;;5072635;28;20036;-74
2022/04/21 06:06:04;;;;;;;58.55;34.95;;;128.60;2252.80;;;;;;5072016;28;20021;-76
2022/04/21 06:08:30;;;;;;;47.03;31.15;;;128.80;2252.80;;;;;;5072600;28;20114;-73
2022/04/21 06:10:56;;;;;;;43.90;28.67;;;128.80;2252.80;;;;;;5073984;28;20049;-75
2022/04/21 06:13:23;;;;;;;46.67;30.30;;;128.90;2252.80;;;;;;5073509;28;20025;-73
2022/04/21 06:15:49;;;;;;;43.28;28.80;;;153.60;2252.80;;;;;;5072474;28;20443;-76
2022/04/21 06:18:15;;;;;;;46.97;33.50;;;153.70;2252.80;;;;;;5073678;28;20389;-75
2022/04/21 06:20:40;;;;;;;50.95;34.65;;;153.70;2252.80;;;;;;5072358;28;20031;-73
2022/04/21 06:23:06;;;;;;;61.35;40.00;;;128.90;2252.80;;;;;;5072636;28;20035;-75
2022/04/21 06:25:32;;;;;;;45.50;29.88;;;128.50;2252.80;;;;;;5072140;28;20025;-76
2022/04/21 06:27:58;;;;;;;66.57;45.65;;;128.70;2176.00;;;;;;5072520;28;20457;-76
2022/04/21 06:30:24;;;;;;;61.25;41.83;;;128.80;2252.80;;;;;;5072523;28;20450;-73
2022/04/21 06:32:50;;;;;;;51.05;35.60;;;128.50;2252.80;;;;;;5071999;28;20032;-74
2022/04/21 06:35:17;;;;;;;52.72;36.58;;;128.60;2252.80;;;;;;5072110;28;20481;-74
2022/04/21 06:37:43;;;;;;;49.10;31.80;;;128.70;2252.80;;;;;;5073698;28;20031;-76
2022/04/21 06:40:09;;;;;;;49.88;33.58;;;128.80;2252.80;;;;;;5073314;28;20024;-76
2022/04/21 06:42:38;;;;;;;45.30;28.35;;;128.80;2252.80;;;;;;5073542;28;20052;-76
2022/04/21 06:48:04;;;;;;;40.72;25.98;;;153.70;2252.80;;;;;;5073058;28;20078;-76
2022/04/21 06:50:37;;;;;;;40.83;25.35;;;153.70;2252.80;;;;;;5072205;28;20123;-75
2022/04/21 06:53:08;;;;;;;45.40;30.15;;;128.80;2252.80;;;;;;5071888;28;20033;-73
2022/04/21 06:55:34;;;;;;;47.10;29.85;;;153.60;2252.80;;;;;;5072744;28;20024;-72
2022/04/21 06:58:00;;;;;;;53.53;36.40;;;153.70;2252.80;;;;;;5082644;28;20044;-73
2022/04/21 07:00:27;;;;;;;51.45;31.58;;;153.60;2252.80;;;;;;5077061;28;20063;-77
2022/04/21 07:02:57;;;;;;;51.60;32.33;;;128.80;2252.80;;;;;;5073383;28;20020;-74
2022/04/21 07:05:25;;;;;;;60.63;39.30;;;128.70;2252.80;;;;;;5072208;28;20473;-73
2022/04/21 07:07:51;;;;;;;49.50;35.45;;;128.90;2252.80;;;;;;5071673;28;20491;-74
2022/04/21 07:10:19;;;;;;;63.15;41.83;;;128.90;1894.40;;;;;;5071994;28;20059;-75
2022/04/21 07:12:46;;;;;;;56.60;37.90;;;153.70;1971.20;;;;;;5073210;28;20033;-75
2022/04/21 07:15:12;;;;;;;55.65;38.95;;;153.80;2252.80;;;;;;5071680;28;20424;-75
2022/04/21 07:17:40;;;;;;;63.95;43.63;;;154.00;2252.80;;;;;;5071882;28;20032;-76
2022/04/21 07:20:08;;;;;;;66.38;44.33;;;153.90;2252.80;;;;;;5071955;28;20029;-75
2022/04/21 07:22:34;;;;;;;72.45;46.33;;;154.00;2252.80;;;;;;5072689;28;20074;-73
2022/04/21 07:25:02;;;;;;;65.68;45.05;;;154.00;2252.80;;;;;;5073135;28;20037;-75
2022/04/21 07:27:28;;;;;;;67.85;46.95;;;154.00;2252.80;;;;;;5073107;28;20029;-74
2022/04/21 07:29:54;;;;;;;69.53;44.15;;;154.10;2252.80;;;;;;5071523;28;20031;-75
2022/04/21 07:32:20;;;;;;;64.53;41.97;;;154.10;2252.80;;;;;;5071732;28;20032;-75
2022/04/21 07:34:45;;;;;;;67.15;46.65;;;153.80;2252.80;;;;;;5071737;28;20458;-74
2022/04/21 07:37:11;;;;;;;75.55;49.08;;;154.00;2252.80;;;;;;5071492;28;20485;-76
2022/04/21 07:39:38;;;;;;;68.93;48.58;;;154.20;2252.80;;;;;;5071723;28;20395;-75
2022/04/21 07:42:05;;;;;;;74.07;50.92;;;154.30;2252.80;;;;;;5071296;28;20060;-74
2022/04/21 07:44:34;;;;;;;76.68;51.42;;;154.30;2252.80;;;;;;5072964;28;20035;-73
2022/04/21 07:46:59;;;;;;;77.65;52.08;;;154.10;2252.80;;;;;;5071599;28;20363;-74
2022/04/21 07:54:54;;;;;;;94.90;65.03;;;179.30;2252.80;;;;;;5073242;28;20047;-73
2022/04/21 07:57:20;;;;;;;82.97;59.90;;;179.40;2252.80;;;;;;5074753;28;20027;-76
2022/04/21 07:59:47;;;;;;;80.32;54.70;;;179.40;2252.80;;;;;;5075127;28;20028;-73
2022/04/21 08:02:16;;;;;;;82.00;56.42;;;179.50;2252.80;;;;;;5076318;28;20473;-72
2022/04/21 08:04:44;;;;;;;80.22;52.75;;;179.50;2252.80;;;;;;5074673;28;20056;-72
2022/04/21 08:07:10;;;;;;;83.90;54.10;;;179.60;2252.80;;;;;;5076174;28;20031;-74
2022/04/21 08:09:36;;;;;;;81.95;57.95;;;179.60;2252.80;;;;;;5074901;28;20111;-74
2022/04/21 08:12:02;;;;;;;80.55;56.75;;;179.50;2252.80;;;;;;5074485;28;20039;-75
2022/04/21 08:14:28;;;;;;;78.22;55.15;;;179.40;2252.80;;;;;;5074821;28;20504;-73
2022/04/21 08:16:54;;;;;;;64.07;44.42;;;179.50;2252.80;;;;;;5074694;28;20366;-74
2022/04/21 08:19:23;;;;;;;64.18;47.90;;;179.30;2252.80;;;;;;5075467;28;20052;-74
2022/04/21 08:21:49;;;;;;;68.95;48.88;;;179.40;2252.80;;;;;;5075653;28;20036;-73
2022/04/21 08:32:34;;;;;;;45.97;33.20;;;179.90;2252.80;;;;;;5075142;28;20082;-75
2022/04/21 08:35:01;;;;;;;41.05;30.38;;;180.10;2252.80;;;;;;5074346;28;20024;-76
2022/04/21 08:37:27;;;;;;;48.60;38.17;;;180.10;2252.80;;;;;;5075360;28;20396;-75
2022/04/21 08:39:55;;;;;;;37.88;28.48;;;180.10;2252.80;;;;;;5073934;28;20032;-76
2022/04/21 08:42:22;;;;;;;37.90;29.45;;;204.80;2252.80;;;;;;5073930;28;20094;-73
2022/04/21 08:44:49;;;;;;;74.70;45.80;;;204.90;2252.80;;;;;;5075808;28;20119;-76
2022/04/21 08:47:19;;;;;;;73.63;49.42;;;205.00;2252.80;;;;;;5075200;28;20075;-77
2022/04/21 08:49:52;;;;;;;40.83;33.28;;;205.10;2252.80;;;;;;5075342;28;20027;-77
2022/04/21 08:52:19;;;;;;;;;;;205.20;2252.80;;;;;;5074102;28;20036;-73
2022/04/21 08:54:46;;;;;;;26.30;19.13;;;204.90;2252.80;;;;;;5074102;28;19904;-75
2022/04/21 08:57:12;;;;;;;28.52;20.45;;;204.90;2252.80;;;;;;5073977;28;20024;-77
2022/04/21 08:59:38;;;;;;;22.15;17.20;;;204.90;2252.80;;;;;;5073554;28;20042;-74
2022/04/21 09:02:04;;;;;;;22.85;19.35;;;205.00;2252.80;;;;;;5074838;28;20095;-73
2022/04/21 09:04:30;;;;;;;24.10;19.00;;;205.00;2252.80;;;;;;5073805;28;20025;-73
2022/04/21 09:07:08;;;;;;;27.63;19.80;;;205.40;2252.80;;;;;;5074644;28;20028;-73
2022/04/21 09:09:34;;;;;;;22.98;18.10;;;205.50;2252.80;;;;;;5073779;28;20494;-74
2022/04/21 09:12:00;;;;;;;21.58;17.33;;;205.70;2252.80;;;;;;5073623;28;20071;-76
2022/04/21 09:14:26;;;;;;;40.08;28.33;;;230.40;2252.80;;;;;;5074458;28;20020;-75
2022/04/21 09:16:51;;;;;;;27.00;21.75;;;230.50;2252.80;;;;;;5073499;28;20218;-76
2022/04/21 09:19:18;;;;;;;26.52;20.85;;;205.70;2252.80;;;;;;5073260;28;20033;-78
2022/04/21 09:21:43;;;;;;;24.02;17.92;;;230.40;2252.80;;;;;;5072042;28;20077;-77
2022/04/21 09:24:24;;;;;;;19.17;15.50;;;230.70;2252.80;;;;;;5073514;28;20108;-78
2022/04/21 09:26:51;;;;;;;20.58;15.82;;;230.90;2252.80;;;;;;5074736;28;20083;-76
2022/04/21 09:29:25;;;;;;;29.88;22.38;;;231.10;2252.80;;;;;;5072996;28;20028;-77
2022/04/21 09:32:02;;;;;;;19.10;15.27;;;231.10;2252.80;;;;;;5074213;28;20032;-76
2022/04/21 09:34:28;;;;;;;19.70;16.88;;;231.10;2252.80;;;;;;5074153;28;20029;-78
2022/04/21 09:36:57;;;;;;;22.85;18.63;;;256.20;2252.80;;;;;;5073280;28;20056;-76
2022/04/21 09:39:23;;;;;;;21.95;16.75;;;256.10;2252.80;;;;;;5074270;28;20154;-77
2022/04/21 09:41:56;;;;;;;23.77;17.10;;;256.20;2252.80;;;;;;5071291;28;20146;-76
2022/04/21 09:47:19;;;;;;;21.90;16.98;;;256.70;2252.80;;;;;;5074382;28;20027;-78
2022/04/21 09:49:46;;;;;;;25.65;20.98;;;256.90;2252.80;;;;;;5074272;28;20028;-78
2022/04/21 09:52:12;;;;;;;25.88;19.67;;;256.90;2252.80;;;;;;5072919;28;20044;-78
2022/04/21 09:54:41;;;;;;;17.27;15.20;;;281.60;2278.40;;;;;;5072828;28;20485;-76
2022/04/21 09:57:08;;;;;;;21.55;15.88;;;256.90;2252.80;;;;;;5072590;28;20047;-77
2022/04/21 09:59:35;;;;;;;18.90;14.18;;;281.60;2278.40;;;;;;5072787;28;20025;-76
2022/04/21 10:02:04;;;;;;;18.58;13.68;;;281.80;2278.40;;;;;;5072633;28;20510;-78
2022/04/21 10:04:31;;;;;;;17.80;14.88;;;281.70;2278.40;;;;;;5072782;28;20111;-76
2022/04/21 10:06:57;;;;;;;23.83;17.13;;;281.80;2278.40;;;;;;5073975;28;20025;-75
2022/04/21 10:09:24;;;;;;;24.35;18.17;;;282.00;2278.40;;;;;;5072329;28;20035;-74
2022/04/21 10:11:52;;;;;;;23.30;17.48;;;282.30;2278.40;;;;;;5072625;28;20529;-73
2022/04/21 10:14:18;;;;;;;19.55;15.80;;;307.30;2304.00;;;;;;5072561;28;20025;-73
2022/04/21 10:16:44;;;;;;;23.10;18.98;;;307.70;2304.00;;;;;;5073517;28;20032;-73
2022/04/21 10:19:12;;;;;;;25.73;18.25;;;307.90;2304.00;;;;;;5072007;28;20029;-72
2022/04/21 10:21:42;;;;;;;18.42;15.68;;;332.80;2329.60;;;;;;5072857;28;20025;-73
2022/04/21 10:24:09;;;;;;;20.75;16.00;;;332.80;2329.60;;;;;;5076262;28;20108;-71
2022/04/21 10:26:37;;;;;;;19.40;16.25;;;308.10;2304.00;;;;;;5073854;28;20032;-74
2022/04/21 10:29:23;;;;;;;25.08;17.58;;;308.10;2304.00;;;;;;5072390;28;20054;-72
2022/04/21 10:31:54;;;;;;;24.52;19.00;;;308.10;2304.00;;;;;;5071989;28;20067;-71
2022/04/21 10:34:27;;;;;;;31.75;25.73;;;308.00;2304.00;;;;;;5072299;28;20031;-73
2022/04/21 10:37:09;;;;;;;18.92;15.10;;;307.80;2304.00;;;;;;5072214;28;20475;-72
2022/04/21 10:39:36;;;;;;;52.80;38.70;;;332.80;2329.60;;;;;;5073545;28;20027;-72
2022/04/21 10:42:21;;;;;;;37.42;24.08;;;332.90;2329.60;;;;;;5073262;28;20110;-73
2022/04/21 10:44:54;;;;;;;73.55;43.10;;;308.10;2304.00;;;;;;5073444;28;20382;-73
2022/04/21 10:47:36;;;;;;;;;;;332.80;2329.60;;;;;;5072598;28;20461;-73
2022/04/21 10:50:10;;;;;;;30.88;24.70;;;332.90;2329.60;;;;;;5072251;28;19904;-75
2022/04/21 10:57:48;;;;;;;25.35;18.83;;;333.10;2329.60;;;;;;5073119;28;20035;-76
2022/04/21 11:00:28;;;;;;;18.17;16.27;;;333.20;2329.60;;;;;;5071805;28;20099;-74
2022/04/21 11:03:08;;;;;;;21.77;16.23;;;333.20;2329.60;;;;;;5072989;28;20033;-75
2022/04/21 11:05:39;;;;;;;14.65;13.13;;;333.20;2329.60;;;;;;5071828;28;20111;-76
2022/04/21 11:08:13;;;;;;;17.38;12.60;;;333.50;2329.60;;;;;;5071993;28;20031;-73
2022/04/21 11:10:38;;;;;;;19.98;16.60;;;333.50;2329.60;;;;;;5073457;28;20533;-76
2022/04/21 11:13:09;;;;;;;23.45;17.90;;;333.60;2329.60;;;;;;5071218;28;20166;-75
2022/04/21 11:15:49;;;;;;;18.52;15.20;;;358.60;2329.60;;;;;;5073185;28;20142;-75
2022/04/21 11:18:28;;;;;;;15.60;11.23;;;359.00;2329.60;;;;;;5072051;28;20025;-76
2022/04/21 11:21:24;;;;;;;19.77;14.52;;;359.00;2329.60;;;;;;5073032;28;20056;-75
2022/04/21 11:23:49;;;;;;;18.55;13.88;;;359.00;2329.60;;;;;;5071820;28;20054;-74
2022/04/21 11:26:15;;;;;;;16.60;12.27;;;359.20;2329.60;;;;;;5071523;28;20036;-74
2022/04/21 11:28:47;;;;;;;13.90;12.30;;;384.00;2329.60;;;;;;5072677;28;20385;-75
2022/04/21 11:31:14;;;;;;;19.35;14.98;;;359.20;2329.60;;;;;;5074181;28;20025;-74
2022/04/21 11:33:44;;;;;;;21.20;14.98;;;359.20;2329.60;;;;;;5076501;28;20028;-73
2022/04/21 11:36:15;;;;;;;21.38;16.17;;;384.00;2329.60;;;;;;5075529;28;20423;-73
2022/04/21 11:38:43;;;;;;;22.58;14.75;;;384.30;2329.60;;;;;;5075403;28;20029;-73
2022/04/21 11:41:10;;;;;;;17.20;15.40;;;384.70;2329.60;;;;;;5075840;28;20041;-73
2022/04/21 11:43:37;;;;;;;14.88;11.77;;;384.80;2329.60;;;;;;5075398;28;20025;-75
2022/04/21 11:46:05;;;;;;;16.35;11.05;;;409.70;2355.20;;;;;;5075239;28;20025;-75
2022/04/21 11:48:37;;;;;;;15.30;11.38;;;409.80;2355.20;;;;;;5074981;28;20440;-75
2022/04/21 11:51:04;;;;;;;17.30;12.20;;;409.90;2355.20;;;;;;5075237;28;20032;-75
2022/04/21 11:53:36;;;;;;;14.63;11.05;;;410.10;2355.20;;;;;;5075130;28;20086;-74
2022/04/21 11:56:06;;;;;;;18.57;12.47;;;410.40;2355.20;;;;;;5074918;28;20021;-74
2022/04/21 11:58:37;;;;;;;20.48;14.27;;;435.30;2355.20;;;;;;5075103;28;20024;-74
2022/04/21 12:06:48;;;;;;;18.33;11.50;;;435.50;2355.20;;;;;;5076318;28;20388;-73
2022/04/21 12:09:16;;;;;;;23.05;12.93;;;435.50;2355.20;;;;;;5076257;28;20028;-75
2022/04/21 12:11:54;;;;;;;15.57;9.48;;;435.60;2355.20;;;;;;5074759;28;20036;-73
2022/04/21 12:14:20;;;;;;;9.90;8.18;;;435.80;2355.20;;;;;;5074820;28;20025;-75
2022/04/21 12:16:55;;;;;;;12.82;8.75;;;436.00;2355.20;;;;;;5074542;28;20052;-74
2022/04/21 12:19:34;;;;;;;9.30;7.22;;;435.80;2355.20;;;;;;5074884;28;20031;-75
2022/04/21 12:22:07;;;;;;;12.65;8.60;;;435.50;2355.20;;;;;;5075846;28;20028;-73
2022/04/21 12:24:55;;;;;;;16.88;10.80;;;435.30;2355.20;;;;;;5074681;28;20112;-73
2022/04/21 12:27:38;;;;;;;22.15;12.18;;;410.40;2355.20;;;;;;5074583;28;20024;-73
2022/04/21 12:30:05;;;;;;;;;;;410.40;2355.20;;;;;;5074782;28;20016;-74
2022/04/21 12:32:33;;;;;;;17.30;11.68;;;410.50;2355.20;;;;;;5075707;28;19916;-74
2022/04/21 12:35:02;;;;;;;11.32;7.68;;;435.20;2355.20;;;;;;5074526;28;20446;-73
2022/04/21 12:37:30;;;;;;;12.93;11.13;;;410.50;2355.20;;;;;;5075377;28;20017;-75
2022/04/21 12:39:58;;;;;;;19.00;11.80;;;435.20;2355.20;;;;;;5075498;28;20078;-75
2022/04/21 12:42:24;;;;;;;15.35;8.70;;;435.20;2355.20;;;;;;5075094;28;20044;-75
2022/04/21 12:44:51;;;;;;;15.63;10.02;;;435.20;2355.20;;;;;;5075250;28;20104;-76
2022/04/21 12:47:18;;;;;;;13.32;9.57;;;435.30;2355.20;;;;;;5074197;28;20032;-74
2022/04/21 12:50:00;;;;;;;16.08;12.00;;;435.50;2355.20;;;;;;5075197;28;20100;-73
2022/04/21 12:52:45;;;;;;;17.63;10.70;;;435.30;2355.20;;;;;;5074128;28;20086;-73
2022/04/21 12:55:21;;;;;;;21.77;11.43;;;435.30;2355.20;;;;;;5074120;28;20063;-76
2022/04/21 12:58:13;;;;;;;15.48;10.90;;;435.50;2355.20;;;;;;5074867;28;20485;-75